Brooksville, FL

11:40 AM EDT on April 28, 2015 (GMT -0400)
Hernando County | | Change Station
CLOSE
Current Station
Airport
Location: Brooksville,
Elevation: 75 ft
Nearby Weather Stations

Elev 75 ft 28.47 °N, 82.45 °W | Updated 47 minutes ago

Rain
Rain Mist
69 °F
Feels Like 69 °F
N
9
Wind Variable Wind from SE

Today
High -- | Low -- °F
--% Chance of Precip.
Yesterday
High -- | Low -- °F
Precip. -- in
6:52 AM 8:03 PM
Waxing Gibbous, 74% visible
Pressure 29.90 in
Visibility 4.0 miles
Clouds Few 7000 ft
Mostly Cloudy 8500 ft
Overcast 11000 ft
Dew Point 67 °F
Humidity 93%
Rainfall 0.61 in
Snow Depth Not available.
UV 3 out of 12
Pollen 5.30 out of 12
Air Quality Not available.
Flu Activity Local Activity
METAR KBKV 281453Z 14008KT 4SM RA BR FEW070 BKN085 OVC110 21/19 A2990 RMK AO2 SLP125 P0007 60044 T02060194 50009

More Conditions Fewer Conditions

Pressure 29.90 in
Visibility 4.0 miles
Clouds Few 7000 ft
Mostly Cloudy 8500 ft
Overcast 11000 ft
Dew Point 67 °F
Humidity 93%
Rainfall 0.61 in
Snow Depth Not available.
UV 3 out of 12
Pollen 5.30 out of 12
Air Quality Not available.
Flu Activity Local Activity
METAR KBKV 281453Z 14008KT 4SM RA BR FEW070 BKN085 OVC110 21/19 A2990 RMK AO2 SLP125 P0007 60044 T02060194 50009

More Conditions Fewer Conditions

10-Day Weather Forecast

Almanac

Astronomy

Apr. 28, 2015 Rise Set
Actual Time
Civil Twilight
Nautical Twilight
Astronomical Twilight
Moon
Length of Visible Light
Length of Day
Tomorrow will be .
, % of the Moon is Illuminated

Today's Extremes

State Highs State Lows

Community

WunderPhotos

Upload Photos

1,817,680 photos uploaded!

WunderBlogs® & News

Nearby

Air Quality

  Air Quality AQ Index Pollutant
Not available.

Snow Depth

Station Depth Elevation

Earthquake Activity

City Distance Mag. Time & Date
Minimum magnitude displayed is 2.5.

Coastal Water Temperatures

Place Temperature

Stations

Nearby Weather Stations

Station Location Temp. Windchill Dew Point Humidity Wind Precip. Elev Updated Type